sensor_id;sensor_type;location;lat;lon;timestamp;temperature;humidity
42365;DHT22;28498;54.400;18.566;2024-01-30T00:00:48;1.20;99.90
42365;DHT22;28498;54.400;18.566;2024-01-30T00:03:15;1.20;99.90
42365;DHT22;28498;54.400;18.566;2024-01-30T00:05:42;1.00;99.90
42365;DHT22;28498;54.400;18.566;2024-01-30T00:10:54;1.00;99.90
42365;DHT22;28498;54.400;18.566;2024-01-30T00:13:22;0.90;99.90
42365;DHT22;28498;54.400;18.566;2024-01-30T00:15:49;0.90;99.90
42365;DHT22;28498;54.400;18.566;2024-01-30T00:18:17;0.90;99.90
42365;DHT22;28498;54.400;18.566;2024-01-30T00:20:45;0.90;99.90
42365;DHT22;28498;54.400;18.566;2024-01-30T00:23:12;0.80;99.90
42365;DHT22;28498;54.400;18.566;2024-01-30T00:25:39;0.70;99.90
42365;DHT22;28498;54.400;18.566;2024-01-30T00:28:06;0.70;99.90
42365;DHT22;28498;54.400;18.566;2024-01-30T00:30:33;0.70;99.90
42365;DHT22;28498;54.400;18.566;2024-01-30T00:33:00;0.50;99.90
42365;DHT22;28498;54.400;18.566;2024-01-30T00:35:27;0.50;99.90
42365;DHT22;28498;54.400;18.566;2024-01-30T00:37:56;0.50;99.90
42365;DHT22;28498;54.400;18.566;2024-01-30T00:40:24;0.60;99.90
42365;DHT22;28498;54.400;18.566;2024-01-30T00:42:51;0.40;99.90
42365;DHT22;28498;54.400;18.566;2024-01-30T00:45:18;0.40;99.90
42365;DHT22;28498;54.400;18.566;2024-01-30T00:47:45;0.30;99.90
42365;DHT22;28498;54.400;18.566;2024-01-30T00:50:12;0.20;99.90
42365;DHT22;28498;54.400;18.566;2024-01-30T00:52:39;0.00;99.90
42365;DHT22;28498;54.400;18.566;2024-01-30T00:55:08;-0.10;99.90
42365;DHT22;28498;54.400;18.566;2024-01-30T00:57:35;-0.10;99.90
42365;DHT22;28498;54.400;18.566;2024-01-30T01:00:03;-0.30;99.90
42365;DHT22;28498;54.400;18.566;2024-01-30T01:02:30;-0.30;99.90
42365;DHT22;28498;54.400;18.566;2024-01-30T01:04:57;-0.40;99.90
42365;DHT22;28498;54.400;18.566;2024-01-30T01:07:24;-0.40;99.90
42365;DHT22;28498;54.400;18.566;2024-01-30T01:09:51;-0.40;99.90
42365;DHT22;28498;54.400;18.566;2024-01-30T01:12:18;-0.40;99.90
42365;DHT22;28498;54.400;18.566;2024-01-30T01:14:46;-0.50;99.90
42365;DHT22;28498;54.400;18.566;2024-01-30T01:17:13;-0.60;99.90
42365;DHT22;28498;54.400;18.566;2024-01-30T01:19:40;-0.60;99.90
42365;DHT22;28498;54.400;18.566;2024-01-30T01:22:07;-0.60;99.90
42365;DHT22;28498;54.400;18.566;2024-01-30T01:24:35;-0.70;99.90
42365;DHT22;28498;54.400;18.566;2024-01-30T01:27:03;-0.70;99.90
42365;DHT22;28498;54.400;18.566;2024-01-30T01:29:30;-0.70;99.90
42365;DHT22;28498;54.400;18.566;2024-01-30T01:31:58;-0.60;99.90
42365;DHT22;28498;54.400;18.566;2024-01-30T01:34:25;-0.50;99.90
42365;DHT22;28498;54.400;18.566;2024-01-30T01:36:56;-0.70;99.90
42365;DHT22;28498;54.400;18.566;2024-01-30T01:39:23;-0.80;99.90
42365;DHT22;28498;54.400;18.566;2024-01-30T01:41:51;-0.30;99.90
42365;DHT22;28498;54.400;18.566;2024-01-30T01:44:18;-0.90;99.90
42365;DHT22;28498;54.400;18.566;2024-01-30T01:46:46;-0.90;99.90
42365;DHT22;28498;54.400;18.566;2024-01-30T01:49:14;-1.00;99.90
42365;DHT22;28498;54.400;18.566;2024-01-30T01:51:43;-1.00;99.90
42365;DHT22;28498;54.400;18.566;2024-01-30T01:54:12;-1.00;99.90
42365;DHT22;28498;54.400;18.566;2024-01-30T01:56:39;-1.10;99.90
42365;DHT22;28498;54.400;18.566;2024-01-30T01:59:07;-1.10;99.40
42365;DHT22;28498;54.400;18.566;2024-01-30T02:01:38;-0.90;58.30
42365;DHT22;28498;54.400;18.566;2024-01-30T02:04:08;-1.10;61.30
42365;DHT22;28498;54.400;18.566;2024-01-30T02:06:35;-1.10;63.20
42365;DHT22;28498;54.400;18.566;2024-01-30T02:09:02;-1.20;66.70
42365;DHT22;28498;54.400;18.566;2024-01-30T02:11:31;-1.20;69.10
42365;DHT22;28498;54.400;18.566;2024-01-30T02:14:03;-1.10;72.80
42365;DHT22;28498;54.400;18.566;2024-01-30T02:16:31;-1.20;82.90
42365;DHT22;28498;54.400;18.566;2024-01-30T02:18:58;-1.30;84.70
42365;DHT22;28498;54.400;18.566;2024-01-30T02:21:25;-0.30;89.10
42365;DHT22;28498;54.400;18.566;2024-01-30T02:23:54;-1.20;93.00
42365;DHT22;28498;54.400;18.566;2024-01-30T02:26:22;-1.20;92.50
42365;DHT22;28498;54.400;18.566;2024-01-30T02:28:49;-1.20;94.30
42365;DHT22;28498;54.400;18.566;2024-01-30T02:31:16;-0.70;98.90
42365;DHT22;28498;54.400;18.566;2024-01-30T02:33:43;-1.20;97.70
42365;DHT22;28498;54.400;18.566;2024-01-30T02:36:10;-1.10;99.50
42365;DHT22;28498;54.400;18.566;2024-01-30T02:38:37;-1.20;99.20
42365;DHT22;28498;54.400;18.566;2024-01-30T02:41:04;-0.50;99.70
42365;DHT22;28498;54.400;18.566;2024-01-30T02:43:31;-0.50;99.90
42365;DHT22;28498;54.400;18.566;2024-01-30T02:45:58;-1.20;99.90
42365;DHT22;28498;54.400;18.566;2024-01-30T02:48:27;-1.20;99.90
42365;DHT22;28498;54.400;18.566;2024-01-30T02:50:54;-1.20;99.90
42365;DHT22;28498;54.400;18.566;2024-01-30T02:53:21;-1.30;99.90
42365;DHT22;28498;54.400;18.566;2024-01-30T02:55:49;-1.20;99.90
42365;DHT22;28498;54.400;18.566;2024-01-30T02:58:15;-1.20;99.90
42365;DHT22;28498;54.400;18.566;2024-01-30T03:00:42;-1.10;99.90
42365;DHT22;28498;54.400;18.566;2024-01-30T03:03:10;-1.10;99.90
42365;DHT22;28498;54.400;18.566;2024-01-30T03:05:37;-1.00;99.90
42365;DHT22;28498;54.400;18.566;2024-01-30T03:08:05;-0.90;99.90
42365;DHT22;28498;54.400;18.566;2024-01-30T03:10:32;-1.00;99.90
42365;DHT22;28498;54.400;18.566;2024-01-30T03:12:59;-0.90;99.90
42365;DHT22;28498;54.400;18.566;2024-01-30T03:15:26;-1.10;99.90
42365;DHT22;28498;54.400;18.566;2024-01-30T03:17:54;-1.20;99.90
42365;DHT22;28498;54.400;18.566;2024-01-30T03:20:21;-1.10;99.90
42365;DHT22;28498;54.400;18.566;2024-01-30T03:22:48;-1.20;99.90
42365;DHT22;28498;54.400;18.566;2024-01-30T03:25:15;-1.30;99.90
42365;DHT22;28498;54.400;18.566;2024-01-30T03:27:42;-1.30;99.90
42365;DHT22;28498;54.400;18.566;2024-01-30T03:30:09;-1.40;99.90
42365;DHT22;28498;54.400;18.566;2024-01-30T03:32:36;-1.40;99.90
42365;DHT22;28498;54.400;18.566;2024-01-30T03:35:04;-0.50;99.90
42365;DHT22;28498;54.400;18.566;2024-01-30T03:37:31;-1.50;99.90
42365;DHT22;28498;54.400;18.566;2024-01-30T03:39:58;-1.40;99.90
42365;DHT22;28498;54.400;18.566;2024-01-30T03:42:25;-1.50;99.90
42365;DHT22;28498;54.400;18.566;2024-01-30T03:44:52;-1.40;99.90
42365;DHT22;28498;54.400;18.566;2024-01-30T03:47:21;-1.40;99.90
42365;DHT22;28498;54.400;18.566;2024-01-30T03:49:48;-1.50;99.90
42365;DHT22;28498;54.400;18.566;2024-01-30T03:52:15;-1.60;99.90
42365;DHT22;28498;54.400;18.566;2024-01-30T03:54:42;-1.60;99.90
42365;DHT22;28498;54.400;18.566;2024-01-30T03:57:09;-1.70;99.90
42365;DHT22;28498;54.400;18.566;2024-01-30T03:59:36;-1.60;99.90
42365;DHT22;28498;54.400;18.566;2024-01-30T04:02:03;-0.40;99.90
42365;DHT22;28498;54.400;18.566;2024-01-30T04:04:31;-1.60;99.90
42365;DHT22;28498;54.400;18.566;2024-01-30T04:06:58;-1.50;99.90
42365;DHT22;28498;54.400;18.566;2024-01-30T04:09:25;-1.50;99.90
42365;DHT22;28498;54.400;18.566;2024-01-30T04:11:53;-0.90;99.90
42365;DHT22;28498;54.400;18.566;2024-01-30T04:14:20;-1.50;99.90
42365;DHT22;28498;54.400;18.566;2024-01-30T04:16:47;-1.10;99.90
42365;DHT22;28498;54.400;18.566;2024-01-30T04:19:14;-1.50;99.90
42365;DHT22;28498;54.400;18.566;2024-01-30T04:21:41;-1.50;99.90
42365;DHT22;28498;54.400;18.566;2024-01-30T04:24:08;-1.40;99.90
42365;DHT22;28498;54.400;18.566;2024-01-30T04:26:35;-1.50;99.90
42365;DHT22;28498;54.400;18.566;2024-01-30T04:29:03;-1.50;99.90
42365;DHT22;28498;54.400;18.566;2024-01-30T04:31:30;-0.30;99.90
42365;DHT22;28498;54.400;18.566;2024-01-30T04:33:57;-1.50;99.90
42365;DHT22;28498;54.400;18.566;2024-01-30T04:36:24;-1.50;99.90
42365;DHT22;28498;54.400;18.566;2024-01-30T04:38:51;-1.50;99.90
42365;DHT22;28498;54.400;18.566;2024-01-30T04:41:18;-1.50;99.90
42365;DHT22;28498;54.400;18.566;2024-01-30T04:43:45;-1.40;99.90
42365;DHT22;28498;54.400;18.566;2024-01-30T04:46:13;-1.30;99.90
42365;DHT22;28498;54.400;18.566;2024-01-30T04:48:40;-1.40;99.90
42365;DHT22;28498;54.400;18.566;2024-01-30T04:51:07;-1.40;99.90
42365;DHT22;28498;54.400;18.566;2024-01-30T04:53:34;-1.40;99.90
42365;DHT22;28498;54.400;18.566;2024-01-30T04:56:01;-1.40;99.90
42365;DHT22;28498;54.400;18.566;2024-01-30T04:58:28;-1.40;99.90
42365;DHT22;28498;54.400;18.566;2024-01-30T05:00:55;-1.40;99.90
42365;DHT22;28498;54.400;18.566;2024-01-30T05:03:24;-1.50;99.90
42365;DHT22;28498;54.400;18.566;2024-01-30T05:05:51;-1.50;99.90
42365;DHT22;28498;54.400;18.566;2024-01-30T05:08:18;-1.60;99.90
42365;DHT22;28498;54.400;18.566;2024-01-30T05:10:45;-1.60;99.90
42365;DHT22;28498;54.400;18.566;2024-01-30T05:13:13;-1.60;99.90
42365;DHT22;28498;54.400;18.566;2024-01-30T05:15:41;-1.30;99.90
42365;DHT22;28498;54.400;18.566;2024-01-30T05:18:08;-1.50;99.90
42365;DHT22;28498;54.400;18.566;2024-01-30T05:20:35;-0.70;99.90
42365;DHT22;28498;54.400;18.566;2024-01-30T05:23:02;-1.30;99.90
42365;DHT22;28498;54.400;18.566;2024-01-30T05:25:29;-1.30;99.90
42365;DHT22;28498;54.400;18.566;2024-01-30T05:27:56;-1.30;99.90
42365;DHT22;28498;54.400;18.566;2024-01-30T05:30:23;-1.40;99.90
42365;DHT22;28498;54.400;18.566;2024-01-30T05:32:49;-1.30;99.90
42365;DHT22;28498;54.400;18.566;2024-01-30T05:35:17;-1.30;99.90
42365;DHT22;28498;54.400;18.566;2024-01-30T05:37:44;-1.30;99.90
42365;DHT22;28498;54.400;18.566;2024-01-30T05:40:11;-1.30;99.90
42365;DHT22;28498;54.400;18.566;2024-01-30T05:42:38;-1.30;99.90
42365;DHT22;28498;54.400;18.566;2024-01-30T05:45:06;-1.10;99.90
42365;DHT22;28498;54.400;18.566;2024-01-30T05:47:33;-1.40;99.90
42365;DHT22;28498;54.400;18.566;2024-01-30T05:50:00;-1.40;99.90
42365;DHT22;28498;54.400;18.566;2024-01-30T05:52:27;-1.40;99.90
42365;DHT22;28498;54.400;18.566;2024-01-30T05:54:54;-0.60;99.90
42365;DHT22;28498;54.400;18.566;2024-01-30T05:57:21;-1.40;99.90
42365;DHT22;28498;54.400;18.566;2024-01-30T05:59:48;-1.40;99.90
42365;DHT22;28498;54.400;18.566;2024-01-30T06:02:15;-0.60;99.90
42365;DHT22;28498;54.400;18.566;2024-01-30T06:04:42;-1.40;99.90
42365;DHT22;28498;54.400;18.566;2024-01-30T06:07:11;-0.60;99.90
42365;DHT22;28498;54.400;18.566;2024-01-30T06:09:38;-1.30;99.90
42365;DHT22;28498;54.400;18.566;2024-01-30T06:12:05;-1.20;99.90
42365;DHT22;28498;54.400;18.566;2024-01-30T06:14:33;-1.10;99.90
42365;DHT22;28498;54.400;18.566;2024-01-30T06:17:00;-0.80;99.90
42365;DHT22;28498;54.400;18.566;2024-01-30T06:19:27;-1.10;99.90
42365;DHT22;28498;54.400;18.566;2024-01-30T06:21:54;-1.10;99.90
42365;DHT22;28498;54.400;18.566;2024-01-30T06:24:21;-1.10;99.90
42365;DHT22;28498;54.400;18.566;2024-01-30T06:26:48;-1.20;99.90
42365;DHT22;28498;54.400;18.566;2024-01-30T06:29:15;-1.10;99.90
42365;DHT22;28498;54.400;18.566;2024-01-30T06:31:46;-1.20;99.90
42365;DHT22;28498;54.400;18.566;2024-01-30T06:34:13;-1.20;99.90
42365;DHT22;28498;54.400;18.566;2024-01-30T06:36:40;-1.10;99.90
42365;DHT22;28498;54.400;18.566;2024-01-30T06:39:07;-1.10;99.90
42365;DHT22;28498;54.400;18.566;2024-01-30T06:41:34;-1.20;99.90
42365;DHT22;28498;54.400;18.566;2024-01-30T06:44:04;-1.10;99.90
42365;DHT22;28498;54.400;18.566;2024-01-30T06:46:33;-1.10;99.90
42365;DHT22;28498;54.400;18.566;2024-01-30T06:49:01;-1.10;99.90
42365;DHT22;28498;54.400;18.566;2024-01-30T06:51:28;-0.60;99.90
42365;DHT22;28498;54.400;18.566;2024-01-30T06:53:55;-0.80;99.90
42365;DHT22;28498;54.400;18.566;2024-01-30T06:56:22;-1.00;99.90
42365;DHT22;28498;54.400;18.566;2024-01-30T06:58:52;-0.90;99.90
42365;DHT22;28498;54.400;18.566;2024-01-30T07:01:19;-0.20;99.90
42365;DHT22;28498;54.400;18.566;2024-01-30T07:03:46;-0.70;99.90
42365;DHT22;28498;54.400;18.566;2024-01-30T07:06:13;-0.80;99.90
42365;DHT22;28498;54.400;18.566;2024-01-30T07:08:40;-0.70;99.90
42365;DHT22;28498;54.400;18.566;2024-01-30T07:11:07;-0.60;99.90
42365;DHT22;28498;54.400;18.566;2024-01-30T07:13:35;-0.50;99.90
42365;DHT22;28498;54.400;18.566;2024-01-30T07:16:02;-0.40;99.90
42365;DHT22;28498;54.400;18.566;2024-01-30T07:18:29;0.00;99.90
42365;DHT22;28498;54.400;18.566;2024-01-30T07:20:56;0.50;99.90
42365;DHT22;28498;54.400;18.566;2024-01-30T07:23:23;0.50;99.90
42365;DHT22;28498;54.400;18.566;2024-01-30T07:25:50;0.80;99.90
42365;DHT22;28498;54.400;18.566;2024-01-30T07:28:17;1.20;99.90
42365;DHT22;28498;54.400;18.566;2024-01-30T07:30:44;1.40;99.90
42365;DHT22;28498;54.400;18.566;2024-01-30T07:33:12;1.50;99.90
42365;DHT22;28498;54.400;18.566;2024-01-30T07:35:39;1.80;99.90
42365;DHT22;28498;54.400;18.566;2024-01-30T07:38:07;1.80;99.90
42365;DHT22;28498;54.400;18.566;2024-01-30T07:40:34;2.00;99.90
42365;DHT22;28498;54.400;18.566;2024-01-30T07:43:01;2.10;99.90
42365;DHT22;28498;54.400;18.566;2024-01-30T07:45:30;2.10;99.90
42365;DHT22;28498;54.400;18.566;2024-01-30T07:48:00;2.20;99.90
42365;DHT22;28498;54.400;18.566;2024-01-30T07:50:27;2.20;99.90
42365;DHT22;28498;54.400;18.566;2024-01-30T07:52:59;2.20;99.90
42365;DHT22;28498;54.400;18.566;2024-01-30T07:55:26;2.30;99.90
42365;DHT22;28498;54.400;18.566;2024-01-30T07:57:58;2.30;99.90
42365;DHT22;28498;54.400;18.566;2024-01-30T08:00:26;2.30;99.90
42365;DHT22;28498;54.400;18.566;2024-01-30T08:02:53;2.60;99.90
42365;DHT22;28498;54.400;18.566;2024-01-30T08:05:22;2.60;99.90
42365;DHT22;28498;54.400;18.566;2024-01-30T08:07:50;2.60;99.90
42365;DHT22;28498;54.400;18.566;2024-01-30T08:10:18;2.60;99.90
42365;DHT22;28498;54.400;18.566;2024-01-30T08:12:46;2.50;99.90
42365;DHT22;28498;54.400;18.566;2024-01-30T08:15:13;2.50;99.90
42365;DHT22;28498;54.400;18.566;2024-01-30T08:17:40;2.60;99.90
42365;DHT22;28498;54.400;18.566;2024-01-30T08:20:07;2.50;99.90
42365;DHT22;28498;54.400;18.566;2024-01-30T08:22:39;2.50;99.90
42365;DHT22;28498;54.400;18.566;2024-01-30T08:25:07;2.70;99.90
42365;DHT22;28498;54.400;18.566;2024-01-30T08:27:36;2.60;99.90
42365;DHT22;28498;54.400;18.566;2024-01-30T08:30:08;2.60;99.90
42365;DHT22;28498;54.400;18.566;2024-01-30T08:32:35;2.60;99.90
42365;DHT22;28498;54.400;18.566;2024-01-30T08:35:03;2.70;99.90
42365;DHT22;28498;54.400;18.566;2024-01-30T08:37:30;2.80;99.90
42365;DHT22;28498;54.400;18.566;2024-01-30T08:39:57;2.90;99.90
42365;DHT22;28498;54.400;18.566;2024-01-30T08:42:25;2.90;99.90
42365;DHT22;28498;54.400;18.566;2024-01-30T08:44:52;2.90;99.90
42365;DHT22;28498;54.400;18.566;2024-01-30T08:47:20;3.00;99.90
42365;DHT22;28498;54.400;18.566;2024-01-30T08:49:47;3.00;99.90
42365;DHT22;28498;54.400;18.566;2024-01-30T08:52:14;3.10;99.90
42365;DHT22;28498;54.400;18.566;2024-01-30T08:54:41;3.10;99.90
42365;DHT22;28498;54.400;18.566;2024-01-30T08:57:08;3.20;99.90
42365;DHT22;28498;54.400;18.566;2024-01-30T08:59:35;3.30;99.90
42365;DHT22;28498;54.400;18.566;2024-01-30T09:02:02;3.30;99.90
42365;DHT22;28498;54.400;18.566;2024-01-30T09:04:38;3.30;99.90
42365;DHT22;28498;54.400;18.566;2024-01-30T09:07:06;3.40;99.90
42365;DHT22;28498;54.400;18.566;2024-01-30T09:09:40;3.40;99.90
42365;DHT22;28498;54.400;18.566;2024-01-30T09:12:08;3.40;99.90
42365;DHT22;28498;54.400;18.566;2024-01-30T09:14:39;3.40;99.90
42365;DHT22;28498;54.400;18.566;2024-01-30T09:17:07;3.50;99.90
42365;DHT22;28498;54.400;18.566;2024-01-30T09:19:35;3.50;99.90
42365;DHT22;28498;54.400;18.566;2024-01-30T09:22:03;3.60;99.90
42365;DHT22;28498;54.400;18.566;2024-01-30T09:24:30;3.60;99.90
42365;DHT22;28498;54.400;18.566;2024-01-30T09:26:57;3.70;99.90
42365;DHT22;28498;54.400;18.566;2024-01-30T09:29:25;3.70;99.90
42365;DHT22;28498;54.400;18.566;2024-01-30T09:31:52;3.80;99.90
42365;DHT22;28498;54.400;18.566;2024-01-30T09:34:19;3.80;99.90
42365;DHT22;28498;54.400;18.566;2024-01-30T09:36:46;3.80;99.90
42365;DHT22;28498;54.400;18.566;2024-01-30T09:39:13;3.90;99.90
42365;DHT22;28498;54.400;18.566;2024-01-30T09:42:05;4.00;99.90
42365;DHT22;28498;54.400;18.566;2024-01-30T09:44:34;4.00;99.90
42365;DHT22;28498;54.400;18.566;2024-01-30T09:47:02;4.10;99.90
42365;DHT22;28498;54.400;18.566;2024-01-30T09:49:32;4.20;99.90
42365;DHT22;28498;54.400;18.566;2024-01-30T09:52:05;4.30;99.90
42365;DHT22;28498;54.400;18.566;2024-01-30T09:54:32;4.40;99.90
42365;DHT22;28498;54.400;18.566;2024-01-30T09:57:03;4.40;99.90
42365;DHT22;28498;54.400;18.566;2024-01-30T09:59:31;4.60;99.90
42365;DHT22;28498;54.400;18.566;2024-01-30T10:01:58;4.70;99.90
42365;DHT22;28498;54.400;18.566;2024-01-30T10:04:25;4.90;99.90
42365;DHT22;28498;54.400;18.566;2024-01-30T10:06:52;5.00;99.90
42365;DHT22;28498;54.400;18.566;2024-01-30T10:09:19;5.20;99.90
42365;DHT22;28498;54.400;18.566;2024-01-30T10:11:48;5.30;99.90
42365;DHT22;28498;54.400;18.566;2024-01-30T10:14:16;5.40;99.90
42365;DHT22;28498;54.400;18.566;2024-01-30T10:16:43;5.40;99.90
42365;DHT22;28498;54.400;18.566;2024-01-30T10:19:12;5.50;99.90
42365;DHT22;28498;54.400;18.566;2024-01-30T10:21:39;5.40;99.90
42365;DHT22;28498;54.400;18.566;2024-01-30T10:24:07;5.50;99.90
42365;DHT22;28498;54.400;18.566;2024-01-30T10:26:34;5.60;99.90
42365;DHT22;28498;54.400;18.566;2024-01-30T10:29:01;5.70;99.90
42365;DHT22;28498;54.400;18.566;2024-01-30T10:31:29;5.80;99.90
42365;DHT22;28498;54.400;18.566;2024-01-30T10:33:56;5.90;99.90
42365;DHT22;28498;54.400;18.566;2024-01-30T10:36:40;5.90;99.90
42365;DHT22;28498;54.400;18.566;2024-01-30T10:39:11;5.80;99.90
42365;DHT22;28498;54.400;18.566;2024-01-30T10:41:43;6.00;99.90
42365;DHT22;28498;54.400;18.566;2024-01-30T10:44:11;6.20;99.90
42365;DHT22;28498;54.400;18.566;2024-01-30T10:46:39;6.30;99.90
42365;DHT22;28498;54.400;18.566;2024-01-30T10:49:09;6.50;99.90
42365;DHT22;28498;54.400;18.566;2024-01-30T10:51:38;6.70;99.90
42365;DHT22;28498;54.400;18.566;2024-01-30T10:54:06;6.80;99.90
42365;DHT22;28498;54.400;18.566;2024-01-30T10:56:35;6.90;99.90
42365;DHT22;28498;54.400;18.566;2024-01-30T10:59:02;7.10;99.90
42365;DHT22;28498;54.400;18.566;2024-01-30T11:01:30;7.10;99.90
42365;DHT22;28498;54.400;18.566;2024-01-30T11:03:58;7.20;99.90
42365;DHT22;28498;54.400;18.566;2024-01-30T11:06:26;7.30;99.90
42365;DHT22;28498;54.400;18.566;2024-01-30T11:09:02;7.40;99.90
42365;DHT22;28498;54.400;18.566;2024-01-30T11:11:56;7.40;99.90
42365;DHT22;28498;54.400;18.566;2024-01-30T11:14:29;7.40;99.90
42365;DHT22;28498;54.400;18.566;2024-01-30T11:16:59;7.30;99.90
42365;DHT22;28498;54.400;18.566;2024-01-30T11:19:30;7.30;99.90
42365;DHT22;28498;54.400;18.566;2024-01-30T11:21:57;7.40;99.90
42365;DHT22;28498;54.400;18.566;2024-01-30T11:24:25;7.30;99.90
42365;DHT22;28498;54.400;18.566;2024-01-30T11:26:56;7.10;99.90
42365;DHT22;28498;54.400;18.566;2024-01-30T11:29:27;7.00;99.90
42365;DHT22;28498;54.400;18.566;2024-01-30T11:31:56;6.90;99.90
42365;DHT22;28498;54.400;18.566;2024-01-30T11:34:24;6.90;99.90
42365;DHT22;28498;54.400;18.566;2024-01-30T11:36:53;7.00;99.90
42365;DHT22;28498;54.400;18.566;2024-01-30T11:39:25;7.10;99.90
42365;DHT22;28498;54.400;18.566;2024-01-30T11:41:54;7.10;99.90
42365;DHT22;28498;54.400;18.566;2024-01-30T11:44:21;7.10;99.90
42365;DHT22;28498;54.400;18.566;2024-01-30T11:46:50;7.20;99.90
42365;DHT22;28498;54.400;18.566;2024-01-30T11:49:18;7.10;99.90
42365;DHT22;28498;54.400;18.566;2024-01-30T11:51:46;7.10;99.90
42365;DHT22;28498;54.400;18.566;2024-01-30T11:54:18;7.20;99.90
42365;DHT22;28498;54.400;18.566;2024-01-30T11:56:45;7.20;99.90
42365;DHT22;28498;54.400;18.566;2024-01-30T11:59:13;7.20;99.90
42365;DHT22;28498;54.400;18.566;2024-01-30T12:01:41;7.10;99.90
42365;DHT22;28498;54.400;18.566;2024-01-30T12:04:09;7.00;99.90
42365;DHT22;28498;54.400;18.566;2024-01-30T12:06:38;6.90;99.90
42365;DHT22;28498;54.400;18.566;2024-01-30T12:09:05;6.80;99.90
42365;DHT22;28498;54.400;18.566;2024-01-30T12:11:48;6.70;99.90
42365;DHT22;28498;54.400;18.566;2024-01-30T12:14:16;6.70;99.90
42365;DHT22;28498;54.400;18.566;2024-01-30T12:16:48;6.80;99.90
42365;DHT22;28498;54.400;18.566;2024-01-30T12:19:25;6.90;99.90
42365;DHT22;28498;54.400;18.566;2024-01-30T12:21:59;6.90;99.90
42365;DHT22;28498;54.400;18.566;2024-01-30T12:24:29;7.00;99.90
42365;DHT22;28498;54.400;18.566;2024-01-30T12:26:59;7.10;99.90
42365;DHT22;28498;54.400;18.566;2024-01-30T12:29:27;7.30;99.90
42365;DHT22;28498;54.400;18.566;2024-01-30T12:32:01;7.30;99.90
42365;DHT22;28498;54.400;18.566;2024-01-30T12:34:28;7.40;99.90
42365;DHT22;28498;54.400;18.566;2024-01-30T12:36:56;7.50;99.90
42365;DHT22;28498;54.400;18.566;2024-01-30T12:39:25;7.50;99.90
42365;DHT22;28498;54.400;18.566;2024-01-30T12:41:52;7.60;99.90
42365;DHT22;28498;54.400;18.566;2024-01-30T12:44:19;7.70;99.90
42365;DHT22;28498;54.400;18.566;2024-01-30T12:46:47;7.70;99.90
42365;DHT22;28498;54.400;18.566;2024-01-30T12:49:14;7.80;99.90
42365;DHT22;28498;54.400;18.566;2024-01-30T12:51:42;7.80;99.90
42365;DHT22;28498;54.400;18.566;2024-01-30T12:54:09;7.80;99.90
42365;DHT22;28498;54.400;18.566;2024-01-30T12:56:36;7.90;99.90
42365;DHT22;28498;54.400;18.566;2024-01-30T12:59:03;7.80;99.90
42365;DHT22;28498;54.400;18.566;2024-01-30T13:01:30;7.80;99.90
42365;DHT22;28498;54.400;18.566;2024-01-30T13:03:57;7.90;99.90
42365;DHT22;28498;54.400;18.566;2024-01-30T13:06:25;7.90;99.90
42365;DHT22;28498;54.400;18.566;2024-01-30T13:08:52;7.80;99.90
42365;DHT22;28498;54.400;18.566;2024-01-30T13:11:19;7.70;99.90
42365;DHT22;28498;54.400;18.566;2024-01-30T13:13:47;7.80;99.90
42365;DHT22;28498;54.400;18.566;2024-01-30T13:16:15;7.70;99.90
42365;DHT22;28498;54.400;18.566;2024-01-30T13:18:43;7.70;99.90
42365;DHT22;28498;54.400;18.566;2024-01-30T13:21:10;7.70;99.90
42365;DHT22;28498;54.400;18.566;2024-01-30T13:23:38;7.60;99.90
42365;DHT22;28498;54.400;18.566;2024-01-30T13:26:04;7.60;99.90
42365;DHT22;28498;54.400;18.566;2024-01-30T13:28:32;7.50;99.90
42365;DHT22;28498;54.400;18.566;2024-01-30T13:30:59;7.50;99.90
42365;DHT22;28498;54.400;18.566;2024-01-30T13:33:26;7.40;99.90
42365;DHT22;28498;54.400;18.566;2024-01-30T13:35:53;7.40;99.90
42365;DHT22;28498;54.400;18.566;2024-01-30T13:38:20;7.40;99.90
42365;DHT22;28498;54.400;18.566;2024-01-30T13:40:47;7.40;99.90
42365;DHT22;28498;54.400;18.566;2024-01-30T13:43:15;7.20;99.90
42365;DHT22;28498;54.400;18.566;2024-01-30T13:45:43;7.10;99.90
42365;DHT22;28498;54.400;18.566;2024-01-30T13:48:10;7.10;99.90
42365;DHT22;28498;54.400;18.566;2024-01-30T13:50:37;7.00;99.90
42365;DHT22;28498;54.400;18.566;2024-01-30T13:53:04;7.00;99.90
42365;DHT22;28498;54.400;18.566;2024-01-30T13:55:31;7.30;99.90
42365;DHT22;28498;54.400;18.566;2024-01-30T13:57:59;7.20;99.90
42365;DHT22;28498;54.400;18.566;2024-01-30T14:00:26;7.40;99.90
42365;DHT22;28498;54.400;18.566;2024-01-30T14:02:53;7.30;99.90
42365;DHT22;28498;54.400;18.566;2024-01-30T14:05:25;7.40;99.90
42365;DHT22;28498;54.400;18.566;2024-01-30T14:07:53;7.30;99.90
42365;DHT22;28498;54.400;18.566;2024-01-30T14:10:20;7.30;99.90
42365;DHT22;28498;54.400;18.566;2024-01-30T14:12:47;6.90;99.90
42365;DHT22;28498;54.400;18.566;2024-01-30T14:15:17;6.80;99.90
42365;DHT22;28498;54.400;18.566;2024-01-30T14:17:55;6.60;99.90
42365;DHT22;28498;54.400;18.566;2024-01-30T14:20:23;6.50;99.90
42365;DHT22;28498;54.400;18.566;2024-01-30T14:22:50;6.40;99.90
42365;DHT22;28498;54.400;18.566;2024-01-30T14:25:18;6.30;99.90
42365;DHT22;28498;54.400;18.566;2024-01-30T14:27:45;6.20;99.90
42365;DHT22;28498;54.400;18.566;2024-01-30T14:30:13;6.00;99.90
42365;DHT22;28498;54.400;18.566;2024-01-30T14:32:40;5.90;99.90
42365;DHT22;28498;54.400;18.566;2024-01-30T14:35:09;5.80;99.90
42365;DHT22;28498;54.400;18.566;2024-01-30T14:37:37;5.70;99.90
42365;DHT22;28498;54.400;18.566;2024-01-30T14:40:05;5.60;99.90
42365;DHT22;28498;54.400;18.566;2024-01-30T14:42:34;5.60;99.90
42365;DHT22;28498;54.400;18.566;2024-01-30T14:45:04;5.50;99.90
42365;DHT22;28498;54.400;18.566;2024-01-30T14:47:31;5.50;99.90
42365;DHT22;28498;54.400;18.566;2024-01-30T14:49:58;5.40;99.90
42365;DHT22;28498;54.400;18.566;2024-01-30T14:52:25;5.40;99.90
42365;DHT22;28498;54.400;18.566;2024-01-30T14:54:53;5.30;99.90
42365;DHT22;28498;54.400;18.566;2024-01-30T14:57:20;5.20;99.90
42365;DHT22;28498;54.400;18.566;2024-01-30T14:59:47;5.20;99.90
42365;DHT22;28498;54.400;18.566;2024-01-30T15:02:15;5.10;99.90
42365;DHT22;28498;54.400;18.566;2024-01-30T15:04:42;5.00;99.90
42365;DHT22;28498;54.400;18.566;2024-01-30T15:07:09;4.90;99.90
42365;DHT22;28498;54.400;18.566;2024-01-30T15:09:39;4.80;99.90
42365;DHT22;28498;54.400;18.566;2024-01-30T15:12:06;4.70;99.90
42365;DHT22;28498;54.400;18.566;2024-01-30T15:14:33;4.60;99.90
42365;DHT22;28498;54.400;18.566;2024-01-30T15:17:00;4.50;99.90
42365;DHT22;28498;54.400;18.566;2024-01-30T15:19:27;4.40;99.90
42365;DHT22;28498;54.400;18.566;2024-01-30T15:21:55;4.20;99.90
42365;DHT22;28498;54.400;18.566;2024-01-30T15:24:22;4.10;99.90
42365;DHT22;28498;54.400;18.566;2024-01-30T15:26:51;4.00;99.90
42365;DHT22;28498;54.400;18.566;2024-01-30T15:29:18;3.80;99.90
42365;DHT22;28498;54.400;18.566;2024-01-30T15:31:48;3.70;99.90